createdAt,value
2018-10-19T00:01:59.214Z,8.80
2018-10-19T00:04:27.670Z,8.70
2018-10-19T00:06:56.162Z,8.70
2018-10-19T00:09:24.674Z,8.70
2018-10-19T00:11:53.135Z,8.70
2018-10-19T00:14:21.601Z,8.60
2018-10-19T00:16:50.039Z,8.60
2018-10-19T00:19:18.526Z,8.60
2018-10-19T00:21:46.986Z,8.50
2018-10-19T00:24:15.471Z,8.50
2018-10-19T00:26:43.925Z,8.50
2018-10-19T00:29:12.429Z,8.50
2018-10-19T00:31:41.049Z,8.50
2018-10-19T00:34:09.647Z,8.50
2018-10-19T00:36:38.501Z,8.50
2018-10-19T00:39:09.240Z,8.50
2018-10-19T00:41:37.892Z,8.40
2018-10-19T00:44:06.338Z,8.40
2018-10-19T00:46:34.828Z,8.40
2018-10-19T00:49:03.526Z,8.30
2018-10-19T00:51:32.000Z,8.30
2018-10-19T00:54:00.434Z,8.30
2018-10-19T00:56:28.904Z,8.30
2018-10-19T00:58:57.384Z,8.30
2018-10-19T01:01:26.048Z,8.20
2018-10-19T01:03:54.514Z,8.20
2018-10-19T01:06:22.979Z,8.30
2018-10-19T01:08:51.457Z,8.30
2018-10-19T01:11:20.076Z,8.30
2018-10-19T01:13:48.539Z,8.30
2018-10-19T01:16:17.010Z,8.30
2018-10-19T01:18:45.473Z,8.40
2018-10-19T01:21:14.024Z,8.40
2018-10-19T01:23:42.614Z,8.50
2018-10-19T01:26:11.076Z,8.50
2018-10-19T01:28:39.532Z,8.60
2018-10-19T01:31:08.012Z,8.60
2018-10-19T01:33:36.474Z,8.60
2018-10-19T01:36:06.279Z,8.50
2018-10-19T01:38:35.425Z,8.50
2018-10-19T01:41:04.288Z,8.60
2018-10-19T01:43:32.903Z,8.60
2018-10-19T01:46:01.367Z,8.60
2018-10-19T01:48:29.840Z,8.60
2018-10-19T01:50:58.850Z,8.60
2018-10-19T01:53:27.561Z,8.60
2018-10-19T01:55:56.036Z,8.60
2018-10-19T01:58:24.554Z,8.60
2018-10-19T02:00:53.014Z,8.60
2018-10-19T02:03:21.486Z,8.60
2018-10-19T02:05:49.947Z,8.60
2018-10-19T02:08:18.458Z,8.60
2018-10-19T02:10:50.079Z,8.60
2018-10-19T02:13:21.659Z,8.60
2018-10-19T02:15:50.135Z,8.60
2018-10-19T02:18:18.745Z,8.50
2018-10-19T02:20:47.402Z,8.50
2018-10-19T02:23:15.943Z,8.50
2018-10-19T02:25:48.535Z,8.50
2018-10-19T02:28:17.292Z,8.50
2018-10-19T02:30:45.786Z,8.40
2018-10-19T02:33:14.339Z,8.40
2018-10-19T02:35:42.951Z,8.40
2018-10-19T02:38:11.406Z,8.40
2018-10-19T02:40:39.960Z,8.30
2018-10-19T02:43:08.460Z,8.30
2018-10-19T02:45:40.955Z,8.30
2018-10-19T02:48:09.911Z,8.30
2018-10-19T02:50:38.447Z,8.20
2018-10-19T02:53:07.067Z,8.20
2018-10-19T02:55:35.704Z,8.10
2018-10-19T02:58:04.162Z,8.00
2018-10-19T03:00:32.647Z,8.00
2018-10-19T03:03:01.115Z,7.90
2018-10-19T03:05:29.736Z,7.80
2018-10-19T03:07:58.194Z,7.80
2018-10-19T03:10:26.656Z,7.70
2018-10-19T03:12:55.106Z,7.70
2018-10-19T03:15:23.570Z,7.70
2018-10-19T03:17:52.045Z,7.70
2018-10-19T03:20:20.511Z,7.60
2018-10-19T03:22:48.947Z,7.50
2018-10-19T03:25:17.418Z,7.50
2018-10-19T03:27:45.874Z,7.40
2018-10-19T03:30:14.339Z,7.40
2018-10-19T03:32:42.820Z,7.30
2018-10-19T03:35:11.498Z,7.30
2018-10-19T03:37:40.075Z,7.30
2018-10-19T03:40:08.555Z,7.40
2018-10-19T03:42:37.017Z,7.30
2018-10-19T03:45:06.603Z,7.30
2018-10-19T03:47:35.620Z,7.30
2018-10-19T03:50:04.479Z,7.30
2018-10-19T03:52:33.029Z,7.30
2018-10-19T03:55:01.510Z,7.30
2018-10-19T03:57:30.139Z,7.20
2018-10-19T03:59:58.581Z,7.30
2018-10-19T04:02:27.046Z,7.20
2018-10-19T04:04:55.503Z,7.20
2018-10-19T04:07:24.150Z,7.30
2018-10-19T04:09:52.610Z,7.30
2018-10-19T04:12:21.082Z,7.40
2018-10-19T04:14:49.523Z,7.30
2018-10-19T04:17:18.081Z,7.40
2018-10-19T04:19:46.655Z,7.40
2018-10-19T04:22:15.112Z,7.40
2018-10-19T04:24:43.589Z,7.40
2018-10-19T04:27:12.360Z,7.40
2018-10-19T04:29:41.259Z,7.50
2018-10-19T04:32:09.732Z,7.50
2018-10-19T04:34:38.240Z,7.50
2018-10-19T04:37:07.132Z,7.50
2018-10-19T04:39:35.839Z,7.50
2018-10-19T04:42:05.370Z,7.50
2018-10-19T04:44:33.938Z,7.50
2018-10-19T04:47:02.432Z,7.50
2018-10-19T04:49:31.059Z,7.50
2018-10-19T04:51:59.499Z,7.40
2018-10-19T04:54:27.983Z,7.40
2018-10-19T04:56:56.472Z,7.50
2018-10-19T04:59:25.117Z,7.40
2018-10-19T05:01:53.583Z,7.50
2018-10-19T05:04:22.075Z,7.50
2018-10-19T05:06:50.548Z,7.50
2018-10-19T05:09:19.026Z,7.50
2018-10-19T05:11:47.471Z,7.50
2018-10-19T05:14:16.051Z,7.40
2018-10-19T05:16:44.618Z,7.40
2018-10-19T05:19:13.100Z,7.30
2018-10-19T05:21:41.565Z,7.30
2018-10-19T05:24:10.039Z,7.40
2018-10-19T05:26:38.515Z,7.40
2018-10-19T05:29:07.255Z,7.40
2018-10-19T05:31:35.870Z,7.30
2018-10-19T05:34:04.727Z,7.30
2018-10-19T05:36:33.229Z,7.20
2018-10-19T05:39:01.681Z,7.20
2018-10-19T05:41:30.159Z,7.20
2018-10-19T05:43:58.689Z,7.10
2018-10-19T05:46:27.664Z,7.00
2018-10-19T05:48:57.079Z,7.10
2018-10-19T05:51:25.637Z,7.10
2018-10-19T05:56:47.043Z,7.10
2018-10-19T05:59:15.511Z,7.10
2018-10-19T06:01:44.112Z,7.10
2018-10-19T06:04:12.556Z,7.20
2018-10-19T06:06:41.001Z,7.20
2018-10-19T06:09:10.587Z,7.20
2018-10-19T06:11:39.373Z,7.20
2018-10-19T06:14:08.467Z,7.20
2018-10-19T06:16:37.229Z,7.10
2018-10-19T06:19:06.114Z,7.20
2018-10-19T06:21:34.547Z,7.20
2018-10-19T06:24:02.975Z,7.20
2018-10-19T06:26:31.912Z,7.20
2018-10-19T06:29:00.420Z,7.20
2018-10-19T06:31:29.015Z,7.30
2018-10-19T06:33:57.459Z,7.30
2018-10-19T06:36:26.225Z,7.30
2018-10-19T06:38:55.030Z,7.30
2018-10-19T06:41:23.596Z,7.40
2018-10-19T06:43:52.066Z,7.40
2018-10-19T06:46:20.540Z,7.40
2018-10-19T06:48:49.027Z,7.50
2018-10-19T06:51:17.614Z,7.60
2018-10-19T06:53:46.050Z,7.70
2018-10-19T06:56:14.555Z,7.70
2018-10-19T06:58:42.942Z,7.80
2018-10-19T07:01:11.357Z,7.80
2018-10-19T07:03:39.815Z,7.80
2018-10-19T07:06:08.244Z,7.90
2018-10-19T07:08:43.398Z,7.90
2018-10-19T07:11:11.886Z,8.00
2018-10-19T07:13:40.454Z,8.00
2018-10-19T07:16:08.859Z,8.00
2018-10-19T07:18:37.331Z,8.00
2018-10-19T07:21:05.930Z,8.10
2018-10-19T07:23:34.368Z,8.10
2018-10-19T07:26:02.796Z,8.10
2018-10-19T07:28:31.271Z,8.20
2018-10-19T07:30:59.706Z,8.20
2018-10-19T07:33:28.153Z,8.30
2018-10-19T07:35:56.576Z,8.30
2018-10-19T07:38:25.163Z,8.40
2018-10-19T07:40:53.673Z,8.50
2018-10-19T07:43:22.127Z,8.50
2018-10-19T07:45:50.588Z,8.50
2018-10-19T07:48:19.074Z,8.40
2018-10-19T07:50:47.643Z,8.40
2018-10-19T07:53:16.096Z,8.50
2018-10-19T07:55:44.518Z,8.50
2018-10-19T07:58:12.943Z,8.50
2018-10-19T08:00:41.413Z,8.60
2018-10-19T08:03:09.834Z,8.60
2018-10-19T08:05:38.262Z,8.70
2018-10-19T08:08:06.712Z,8.80
2018-10-19T08:10:35.333Z,8.90
2018-10-19T08:13:03.762Z,9.00
2018-10-19T08:15:32.201Z,9.00
2018-10-19T08:18:00.627Z,9.00
2018-10-19T08:20:29.091Z,9.10
2018-10-19T08:22:57.527Z,9.30
2018-10-19T08:25:26.179Z,9.40
2018-10-19T08:27:54.612Z,9.40
2018-10-19T08:30:23.074Z,9.60
2018-10-19T08:32:51.528Z,9.60
2018-10-19T08:35:19.984Z,9.70
2018-10-19T08:37:48.406Z,9.70
2018-10-19T08:40:16.815Z,9.80
2018-10-19T08:42:45.271Z,9.90
2018-10-19T08:45:13.741Z,10.00
2018-10-19T08:47:42.378Z,10.10
2018-10-19T08:50:10.965Z,10.30
2018-10-19T08:52:40.026Z,10.40
2018-10-19T08:55:08.644Z,10.50
2018-10-19T08:57:37.372Z,10.70
2018-10-19T09:00:07.630Z,10.70
2018-10-19T09:02:36.193Z,10.90
2018-10-19T09:05:04.822Z,11.00
2018-10-19T09:07:33.429Z,11.10
2018-10-19T09:10:01.818Z,11.30
2018-10-19T09:12:30.292Z,11.30
2018-10-19T09:15:00.178Z,11.40
2018-10-19T09:17:28.755Z,11.50
2018-10-19T09:19:57.179Z,11.70
2018-10-19T09:22:25.628Z,11.80
2018-10-19T09:24:54.180Z,11.90
2018-10-19T09:27:22.663Z,11.90
2018-10-19T09:29:51.081Z,11.90
2018-10-19T09:32:19.495Z,12.00
2018-10-19T09:34:47.920Z,12.00
2018-10-19T09:37:16.365Z,12.10
2018-10-19T09:39:44.783Z,12.20
2018-10-19T09:42:13.347Z,12.20
2018-10-19T09:44:41.855Z,12.20
2018-10-19T09:47:10.321Z,12.30
2018-10-19T09:49:38.912Z,12.30
2018-10-19T09:52:07.354Z,12.40
2018-10-19T09:54:35.773Z,12.50
2018-10-19T09:57:04.279Z,12.60
2018-10-19T09:59:32.870Z,12.70
2018-10-19T10:02:01.313Z,12.80
2018-10-19T10:04:29.916Z,13.00
2018-10-19T10:06:58.701Z,13.00
2018-10-19T10:09:27.350Z,13.10
2018-10-19T10:11:55.790Z,13.20
2018-10-19T10:14:24.240Z,13.20
2018-10-19T10:16:52.711Z,13.20
2018-10-19T10:19:21.302Z,13.10
2018-10-19T10:21:49.725Z,13.10
2018-10-19T10:24:18.170Z,13.00
2018-10-19T10:26:46.588Z,13.00
2018-10-19T10:29:15.039Z,13.00
2018-10-19T10:31:43.465Z,13.00
2018-10-19T10:34:11.907Z,13.00
2018-10-19T10:36:40.399Z,13.00
2018-10-19T10:39:11.120Z,13.10
2018-10-19T10:41:39.652Z,13.20
2018-10-19T10:44:08.157Z,13.20
2018-10-19T10:46:36.692Z,13.40
2018-10-19T10:49:05.555Z,13.60
2018-10-19T10:51:34.186Z,13.60
2018-10-19T10:54:02.644Z,13.70
2018-10-19T10:56:31.059Z,13.80
2018-10-19T10:58:59.508Z,13.90
2018-10-19T11:01:28.128Z,13.90
2018-10-19T11:03:56.641Z,13.90
2018-10-19T11:06:25.242Z,13.90
2018-10-19T11:08:54.819Z,14.00
2018-10-19T11:11:23.219Z,14.20
2018-10-19T11:13:51.661Z,14.30
2018-10-19T11:16:20.092Z,14.30
2018-10-19T11:18:48.543Z,14.30
2018-10-19T11:21:16.991Z,14.50
2018-10-19T11:23:45.427Z,14.60
2018-10-19T11:26:14.063Z,14.80
2018-10-19T11:28:42.536Z,14.90
2018-10-19T11:31:11.047Z,15.00
2018-10-19T11:33:39.619Z,14.90
2018-10-19T11:36:08.103Z,14.80
2018-10-19T11:38:36.522Z,14.90
2018-10-19T11:41:05.090Z,15.00
2018-10-19T11:43:33.575Z,15.00
2018-10-19T11:46:02.069Z,15.00
2018-10-19T11:48:30.648Z,15.00
2018-10-19T11:50:59.095Z,15.10
2018-10-19T11:53:27.527Z,15.00
2018-10-19T11:55:55.953Z,14.90
2018-10-19T11:58:24.379Z,15.00
2018-10-19T12:00:52.824Z,15.00
2018-10-19T12:03:21.250Z,15.00
2018-10-19T12:05:49.730Z,15.00
2018-10-19T12:08:18.178Z,15.00
2018-10-19T12:10:46.745Z,15.00
2018-10-19T12:13:15.321Z,14.90
2018-10-19T12:15:43.987Z,14.90
2018-10-19T12:18:12.575Z,14.90
2018-10-19T12:20:41.688Z,15.00
2018-10-19T12:23:12.444Z,15.00
2018-10-19T12:25:40.988Z,15.00
2018-10-19T12:28:09.626Z,15.00
2018-10-19T12:30:38.584Z,15.10
2018-10-19T12:33:09.440Z,15.20
2018-10-19T12:35:38.170Z,15.20
2018-10-19T12:38:06.727Z,15.20
2018-10-19T12:40:35.718Z,15.20
2018-10-19T12:43:04.899Z,15.20
2018-10-19T12:46:43.770Z,15.20
2018-10-19T12:49:13.579Z,15.20
2018-10-19T12:51:42.179Z,15.30
2018-10-19T12:54:10.734Z,15.40
2018-10-19T12:56:39.352Z,15.30
2018-10-19T12:59:08.004Z,15.40
2018-10-19T13:01:36.480Z,15.40
2018-10-19T13:04:05.284Z,15.40
2018-10-19T13:06:34.022Z,15.40
2018-10-19T13:09:02.517Z,15.40
2018-10-19T13:11:31.122Z,15.30
2018-10-19T13:13:59.591Z,15.20
2018-10-19T13:16:28.033Z,15.10
2018-10-19T13:18:56.508Z,15.00
2018-10-19T13:21:25.248Z,14.90
2018-10-19T13:23:53.741Z,14.80
2018-10-19T13:26:22.368Z,14.70
2018-10-19T13:28:50.867Z,14.60
2018-10-19T13:31:19.308Z,14.60
2018-10-19T13:33:47.786Z,14.60
2018-10-19T13:36:16.219Z,14.60
2018-10-19T13:38:44.670Z,14.60
2018-10-19T13:41:13.099Z,14.60
2018-10-19T13:43:42.280Z,14.70
2018-10-19T13:46:10.692Z,14.70
2018-10-19T13:48:39.120Z,14.70
2018-10-19T13:51:07.925Z,14.70
2018-10-19T13:53:36.519Z,14.70
2018-10-19T13:56:16.799Z,14.80
2018-10-19T13:58:45.247Z,14.80
2018-10-19T14:01:13.695Z,14.90
2018-10-19T14:03:42.159Z,15.00
2018-10-19T14:06:10.814Z,15.00
2018-10-19T14:08:39.274Z,14.90
2018-10-19T14:11:07.789Z,14.90
2018-10-19T14:13:36.388Z,14.90
2018-10-19T14:16:04.978Z,15.00
2018-10-19T14:18:33.466Z,15.00
2018-10-19T14:21:02.286Z,15.10
2018-10-19T14:23:30.972Z,15.20
2018-10-19T14:25:59.530Z,15.20
2018-10-19T14:28:27.964Z,15.30
2018-10-19T14:30:56.402Z,15.30
2018-10-19T14:33:26.034Z,15.30
2018-10-19T14:35:54.654Z,15.40
2018-10-19T14:38:23.131Z,15.40
2018-10-19T14:40:51.570Z,15.50
2018-10-19T14:43:20.896Z,15.50
2018-10-19T14:45:49.342Z,15.40
2018-10-19T14:48:17.815Z,15.40
2018-10-19T14:50:46.283Z,15.30
2018-10-19T14:53:14.748Z,15.10
2018-10-19T14:55:43.322Z,14.90
2018-10-19T14:58:11.730Z,14.70
2018-10-19T15:00:40.193Z,14.60
2018-10-19T15:03:08.642Z,14.40
2018-10-19T15:05:37.274Z,14.30
2018-10-19T15:08:10.801Z,14.10
2018-10-19T15:10:39.484Z,14.00
2018-10-19T15:13:07.936Z,13.90
2018-10-19T15:15:36.406Z,13.90
2018-10-19T15:18:05.293Z,13.80
2018-10-19T15:20:33.878Z,13.80
2018-10-19T15:23:02.333Z,13.90
2018-10-19T15:25:30.793Z,13.80
2018-10-19T15:27:59.228Z,13.80
2018-10-19T15:30:27.703Z,13.80
2018-10-19T15:32:56.136Z,13.80
2018-10-19T15:35:24.547Z,13.80
2018-10-19T15:37:52.984Z,13.70
2018-10-19T15:40:21.760Z,13.60
2018-10-19T15:42:50.191Z,13.60
2018-10-19T15:45:18.623Z,13.60
2018-10-19T15:47:47.055Z,13.50
2018-10-19T15:50:15.491Z,13.50
2018-10-19T15:52:43.930Z,13.50
2018-10-19T15:55:12.334Z,13.50
2018-10-19T15:57:40.754Z,13.50
2018-10-19T16:00:10.155Z,13.50
2018-10-19T16:02:38.678Z,13.50
2018-10-19T16:05:07.203Z,13.50
2018-10-19T16:07:35.785Z,13.50
2018-10-19T16:10:04.662Z,13.40
2018-10-19T16:12:33.101Z,13.30
2018-10-19T16:15:01.568Z,13.20
2018-10-19T16:17:30.243Z,13.10
2018-10-19T16:19:58.809Z,13.00
2018-10-19T16:22:27.275Z,12.90
2018-10-19T16:24:55.711Z,12.80
2018-10-19T16:27:24.210Z,12.60
2018-10-19T16:29:52.776Z,12.50
2018-10-19T16:32:21.433Z,12.40
2018-10-19T16:34:49.942Z,12.30
2018-10-19T16:37:18.467Z,12.10
2018-10-19T16:39:46.910Z,12.00
2018-10-19T16:42:15.408Z,12.00
2018-10-19T16:44:44.028Z,11.90
2018-10-19T16:47:13.198Z,11.80
2018-10-19T16:49:41.630Z,11.70
2018-10-19T16:52:10.060Z,11.60
2018-10-19T16:54:38.676Z,11.50
2018-10-19T16:57:07.166Z,11.50
2018-10-19T16:59:35.787Z,11.40
2018-10-19T17:02:04.867Z,11.30
2018-10-19T17:04:33.367Z,11.30
2018-10-19T17:07:01.926Z,11.20
2018-10-19T17:09:30.371Z,11.10
2018-10-19T17:11:58.811Z,11.00
2018-10-19T17:14:27.268Z,11.00
2018-10-19T17:16:55.680Z,10.90
2018-10-19T17:19:24.186Z,10.90
2018-10-19T17:21:52.752Z,10.80
2018-10-19T17:24:21.502Z,10.80
2018-10-19T17:26:50.080Z,10.70
2018-10-19T17:29:18.514Z,10.70
2018-10-19T17:31:46.923Z,10.60
2018-10-19T17:34:15.723Z,10.50
2018-10-19T17:36:44.186Z,10.50
2018-10-19T17:39:13.361Z,10.50
2018-10-19T17:41:41.877Z,10.40
2018-10-19T17:44:10.296Z,10.40
2018-10-19T17:46:38.727Z,10.40
2018-10-19T17:49:07.228Z,10.30
2018-10-19T17:51:35.815Z,10.30
2018-10-19T17:54:04.425Z,10.20
2018-10-19T17:56:33.031Z,10.20
2018-10-19T17:59:01.496Z,10.10
2018-10-19T18:01:30.684Z,10.10
2018-10-19T18:03:59.149Z,10.00
2018-10-19T18:06:27.961Z,10.00
2018-10-19T18:08:56.423Z,9.90
2018-10-19T18:11:24.921Z,9.90
2018-10-19T18:13:53.497Z,9.80
2018-10-19T18:16:21.936Z,9.80
2018-10-19T18:18:50.386Z,9.80
2018-10-19T18:21:18.912Z,9.80
2018-10-19T18:23:47.514Z,9.80
2018-10-19T18:26:16.150Z,9.70
2018-10-19T18:28:44.767Z,9.70
2018-10-19T18:31:13.352Z,9.70
2018-10-19T18:33:41.813Z,9.70
2018-10-19T18:36:10.283Z,9.60
2018-10-19T18:38:38.767Z,9.60
2018-10-19T18:41:07.219Z,9.50
2018-10-19T18:43:35.851Z,9.50
2018-10-19T18:46:04.483Z,9.50
2018-10-19T18:48:32.943Z,9.40
2018-10-19T18:51:01.426Z,9.40
2018-10-19T18:53:30.248Z,9.40
2018-10-19T18:55:58.728Z,9.40
2018-10-19T18:58:27.344Z,9.40
2018-10-19T19:00:55.959Z,9.40
2018-10-19T19:03:24.985Z,9.30
2018-10-19T19:05:53.386Z,9.30
2018-10-19T19:08:21.850Z,9.30
2018-10-19T19:10:50.355Z,9.20
2018-10-19T19:13:24.154Z,9.20
2018-10-19T19:15:52.581Z,9.20
2018-10-19T19:18:21.214Z,9.10
2018-10-19T19:20:49.708Z,9.10
2018-10-19T19:23:18.137Z,9.00
2018-10-19T19:25:51.994Z,9.00
2018-10-19T19:28:20.803Z,8.90
2018-10-19T19:30:49.227Z,8.90
2018-10-19T19:33:23.014Z,8.80
2018-10-19T19:35:51.486Z,8.80
2018-10-19T19:38:20.005Z,8.80
2018-10-19T19:40:53.916Z,8.80
2018-10-19T19:43:22.404Z,8.70
2018-10-19T19:45:50.856Z,8.70
2018-10-19T19:48:24.540Z,8.70
2018-10-19T19:50:53.427Z,8.70
2018-10-19T19:53:21.891Z,8.70
2018-10-19T19:55:50.378Z,8.60
2018-10-19T19:58:18.840Z,8.60
2018-10-19T20:00:47.263Z,8.60
2018-10-19T20:03:15.703Z,8.60
2018-10-19T20:05:44.147Z,8.50
2018-10-19T20:08:12.626Z,8.40
2018-10-19T20:10:41.771Z,8.40
2018-10-19T20:13:10.210Z,8.40
2018-10-19T20:15:38.734Z,8.30
2018-10-19T20:18:07.282Z,8.30
2018-10-19T20:20:35.728Z,8.30
2018-10-19T20:23:04.172Z,8.30
2018-10-19T20:25:32.802Z,8.30
2018-10-19T20:28:01.351Z,8.30
2018-10-19T20:30:29.832Z,8.20
2018-10-19T20:32:58.274Z,8.20
2018-10-19T20:35:26.790Z,8.10
2018-10-19T20:37:55.220Z,8.10
2018-10-19T20:40:23.927Z,8.10
2018-10-19T20:42:52.559Z,8.10
2018-10-19T20:45:21.075Z,8.10
2018-10-19T20:47:51.282Z,8.20
2018-10-19T20:50:19.935Z,8.20
2018-10-19T20:52:48.402Z,8.20
2018-10-19T20:55:16.813Z,8.20
2018-10-19T20:57:45.282Z,8.20
2018-10-19T21:00:14.079Z,8.20
2018-10-19T21:02:42.519Z,8.20
2018-10-19T21:05:12.084Z,8.20
2018-10-19T21:07:40.930Z,8.20
2018-10-19T21:10:11.534Z,8.20
2018-10-19T21:12:40.091Z,8.20
2018-10-19T21:15:10.676Z,8.10
2018-10-19T21:17:39.382Z,8.10
2018-10-19T21:20:09.308Z,8.00
2018-10-19T21:22:38.314Z,8.00
2018-10-19T21:25:07.825Z,8.00
2018-10-19T21:27:36.842Z,7.90
2018-10-19T21:30:06.618Z,7.90
2018-10-19T21:32:35.247Z,7.90
2018-10-19T21:35:03.771Z,7.80
2018-10-19T21:37:32.392Z,7.80
2018-10-19T21:40:00.816Z,7.80
2018-10-19T21:42:29.406Z,7.80
2018-10-19T21:44:57.959Z,7.80
2018-10-19T21:47:26.778Z,7.80
2018-10-19T21:49:55.307Z,7.80
2018-10-19T21:52:24.091Z,7.80
2018-10-19T21:54:52.580Z,7.80
2018-10-19T21:57:21.237Z,7.80
2018-10-19T21:59:49.687Z,7.70
2018-10-19T22:02:18.200Z,7.70
2018-10-19T22:04:46.731Z,7.60
2018-10-19T22:07:15.166Z,7.70
2018-10-19T22:09:43.683Z,7.60
2018-10-19T22:12:12.132Z,7.60
2018-10-19T22:14:40.577Z,7.60
2018-10-19T22:17:09.753Z,7.60
2018-10-19T22:19:38.308Z,7.50
2018-10-19T22:22:07.135Z,7.50
2018-10-19T22:24:35.581Z,7.50
2018-10-19T22:27:04.252Z,7.50
2018-10-19T22:29:32.773Z,7.50
2018-10-19T22:32:01.385Z,7.60
2018-10-19T22:34:29.857Z,7.60
2018-10-19T22:36:58.287Z,7.50
2018-10-19T22:39:26.920Z,7.50
2018-10-19T22:41:55.336Z,7.50
2018-10-19T22:44:23.775Z,7.50
2018-10-19T22:46:52.267Z,7.40
2018-10-19T22:49:20.740Z,7.40
2018-10-19T22:51:49.204Z,7.40
2018-10-19T22:54:17.635Z,7.40
2018-10-19T22:56:46.470Z,7.40
2018-10-19T22:59:14.985Z,7.40
2018-10-19T23:01:44.436Z,7.40
2018-10-19T23:04:12.857Z,7.30
2018-10-19T23:06:41.342Z,7.30
2018-10-19T23:09:10.591Z,7.20
2018-10-19T23:11:39.041Z,7.20
2018-10-19T23:14:07.747Z,7.20
2018-10-19T23:16:36.210Z,7.20
2018-10-19T23:19:04.866Z,7.30
2018-10-19T23:21:33.480Z,7.30
2018-10-19T23:24:02.047Z,7.20
2018-10-19T23:26:30.535Z,7.20
2018-10-19T23:28:59.441Z,7.10
2018-10-19T23:31:28.255Z,7.00
2018-10-19T23:33:56.707Z,7.00
2018-10-19T23:36:25.149Z,7.00
2018-10-19T23:38:53.620Z,6.90
2018-10-19T23:41:22.224Z,6.90
2018-10-19T23:43:50.855Z,6.90
2018-10-19T23:46:19.344Z,6.80
2018-10-19T23:48:47.859Z,6.80
2018-10-19T23:51:16.379Z,6.90
2018-10-19T23:53:44.853Z,6.80
2018-10-19T23:56:13.258Z,6.80
2018-10-19T23:58:41.770Z,6.80
